Airfield :
LOGIN :

Register | Disclaimer

   EN    FR    IT 

 










Legend :    VFR   Marginal VFR   IFR   Intensive IFR   Very Intensive IFR
Visi :
Ceiling :
>= 8 km
>= 3000ft
5 to 8 km
1000 to 3000 ft
1500m to 5 km
500 to 1000 ft
800 to 1500m
200 to 500 ft
< 800m
< 200 ft
Symbols :   Thunderstorms  Fog  Heavy snow  Heavy precipitations  Wind > 20 kt
SIGMETs :     Misc.  Thunderstorms  Icing  Turbulence  Mountain Waves  Volcanic Ashes






- Airport Elevation : 1548 ft


LKNA - Náměšť Air Base

CURRENT METAR :
  • 041500Z 09004KT 050V120 CAVOK 19/13 Q1015 NOSIG RMK BLU BLU

EXPIRED METARs :
  • 041430Z 12003KT 090V150 9999 FEW030 BKN049 19/12 Q1015 NOSIG RMK BLU BLU
  • 041400Z 13004KT 070V190 9999 SCT030 BKN050 19/12 Q1015 NOSIG RMK BLU BLU
  • 041330Z 04004KT 360V080 9999 BKN040 19/13 Q1015 NOSIG RMK BLU BLU
  • 041300Z 00000KT 9999 BKN040 19/12 Q1015 NOSIG RMK BLU BLU
  • 041230Z VRB02KT 9999 BKN033 BKN120 19/12 Q1015 NOSIG RMK BLU BLU

TAF TAF LKNA
Valid from the 04 at 12:00 until the 05 at 12:00 UTC


041100Z 0412/0512 19006KT 9999 BKN030
BECMG 0416/0418 15006KT
BECMG 0420/0422 8000 RA OVC020
TEMPO 0422/0510 5000 RA BKN007 OVC015
BECMG 0502/0504 04008KT



MET'MAP, your aeronautical weather chart ! - Copyright ORBIFLY December 2007 - Disclaimer

ORBIFLY MET'MAP TEAM :

Programming & Development : Alexandra Zaïnal
Concept & original design : Baudouin d'Aumeries
Assistance for programming : Marc-Olivier Méhu
Technical & hardware support : Manuel Goepfert

Contact : metmap@orbifly.com




SOURCES & CREDITS :

   NOAA